Ephrata, Washington
Current Conditions -  °F | °C
As of 7:53 AM on Friday 28 Nov 2014 (Local Time) from KEPH Reporting Station
Clear Clear  
Wind Chill:   Ceiling: Unl
Heat Index:   Visibility: 10mi
Dew Point:   Wind: 15mph
Humidity: 83%   Direction: 200°SSW
Pressure: 29.47"   Gusts: 24mph
Location:  47.32°N, 119.55°W
Report Text: KEPH 281553Z AUTO 20013G21KT 10SM CLR 09/06 A2947 RMK AO2 SLP982 T00890061
Loading
Personal Weather Stations






























Interactive Weather Map New forecast layout! Learn more

10-Day Weather Forecast

Advertisements
Track Severe Weather on mobile